createdAt,value
2022-08-01T00:00:09.872Z,16.51
2022-08-01T00:02:40.979Z,16.47
2022-08-01T00:05:09.572Z,16.42
2022-08-01T00:07:36.580Z,16.35
2022-08-01T00:10:08.831Z,16.32
2022-08-01T00:12:35.886Z,16.29
2022-08-01T00:15:02.890Z,16.21
2022-08-01T00:17:29.637Z,16.14
2022-08-01T00:19:56.419Z,16.16
2022-08-01T00:22:23.389Z,16.11
2022-08-01T00:24:50.638Z,16.17
2022-08-01T00:27:17.387Z,16.13
2022-08-01T00:30:12.270Z,16.18
2022-08-01T00:32:32.455Z,16.22
2022-08-01T00:34:59.424Z,16.25
2022-08-01T00:37:26.246Z,16.33
2022-08-01T00:39:53.007Z,16.37
2022-08-01T00:42:19.735Z,16.42
2022-08-01T00:44:46.480Z,16.40
2022-08-01T00:47:13.295Z,16.38
2022-08-01T00:49:40.359Z,16.28
2022-08-01T00:52:09.551Z,16.18
2022-08-01T00:54:36.889Z,16.16
2022-08-01T00:57:04.876Z,16.09
2022-08-01T00:59:37.678Z,16.09
2022-08-01T01:02:14.503Z,16.14
2022-08-01T01:04:42.052Z,16.20
2022-08-01T01:07:25.592Z,16.15
2022-08-01T01:10:15.476Z,16.07
2022-08-01T01:12:42.805Z,16.01
2022-08-01T01:15:31.802Z,15.96
2022-08-01T01:18:10.625Z,15.88
2022-08-01T01:20:42.204Z,15.98
2022-08-01T01:23:12.113Z,15.89
2022-08-01T01:25:38.838Z,15.69
2022-08-01T01:28:23.999Z,15.58
2022-08-01T01:30:54.455Z,15.39
2022-08-01T01:33:24.986Z,15.43
2022-08-01T01:35:57.789Z,15.38
2022-08-01T01:38:30.275Z,15.27
2022-08-01T01:40:59.905Z,15.17
2022-08-01T01:43:29.090Z,15.08
2022-08-01T01:46:01.672Z,15.07
2022-08-01T01:48:29.812Z,15.03
2022-08-01T01:50:57.816Z,14.98
2022-08-01T01:53:25.988Z,14.99
2022-08-01T01:55:56.412Z,14.95
2022-08-01T01:58:24.442Z,15.01
2022-08-01T02:00:53.959Z,14.97
2022-08-01T02:03:22.751Z,14.96
2022-08-01T02:05:51.958Z,14.99
2022-08-01T02:08:19.165Z,14.96
2022-08-01T02:11:07.492Z,14.84
2022-08-01T02:13:37.446Z,14.77
2022-08-01T02:16:04.907Z,14.78
2022-08-01T02:18:32.436Z,14.75
2022-08-01T02:21:01.311Z,14.84
2022-08-01T02:23:35.325Z,14.82
2022-08-01T02:26:10.748Z,14.79
2022-08-01T02:28:57.606Z,14.69
2022-08-01T02:31:24.760Z,14.61
2022-08-01T02:34:03.246Z,14.48
2022-08-01T02:36:33.999Z,14.39
2022-08-01T02:39:09.604Z,14.29
2022-08-01T02:41:41.863Z,14.16
2022-08-01T02:44:10.523Z,14.10
2022-08-01T02:46:44.516Z,14.07
2022-08-01T02:49:14.066Z,14.00
2022-08-01T02:51:43.613Z,13.99
2022-08-01T02:54:12.587Z,13.94
2022-08-01T02:56:41.811Z,14.08
2022-08-01T02:59:13.688Z,14.18
2022-08-01T03:01:44.261Z,14.24
2022-08-01T03:04:11.781Z,14.32
2022-08-01T03:06:39.913Z,14.39
2022-08-01T03:09:09.668Z,14.36
2022-08-01T03:11:38.542Z,14.34
2022-08-01T03:14:10.161Z,14.31
2022-08-01T03:16:39.783Z,14.28
2022-08-01T03:19:09.639Z,14.34
2022-08-01T03:21:38.277Z,14.30
2022-08-01T03:24:07.386Z,14.41
2022-08-01T03:26:37.218Z,14.43
2022-08-01T03:29:11.812Z,14.42
2022-08-01T03:31:40.708Z,14.40
2022-08-01T03:34:07.927Z,14.48
2022-08-01T03:36:44.031Z,14.41
2022-08-01T03:39:13.678Z,14.39
2022-08-01T03:41:44.800Z,14.45
2022-08-01T03:44:16.705Z,14.49
2022-08-01T03:46:47.648Z,14.34
2022-08-01T03:49:23.963Z,14.39
2022-08-01T03:51:52.445Z,14.32
2022-08-01T03:54:31.640Z,14.32
2022-08-01T03:56:59.413Z,14.31
2022-08-01T03:59:27.197Z,14.33
2022-08-01T04:01:56.353Z,14.47
2022-08-01T04:04:23.718Z,14.41
2022-08-01T04:06:55.190Z,14.46
2022-08-01T04:09:22.981Z,14.50
2022-08-01T04:12:08.804Z,14.45
2022-08-01T04:14:39.522Z,14.50
2022-08-01T04:17:06.318Z,14.43
2022-08-01T04:19:33.182Z,14.60
2022-08-01T04:22:00.762Z,14.56
2022-08-01T04:24:31.138Z,14.61
2022-08-01T04:27:01.470Z,14.69
2022-08-01T04:29:30.414Z,14.71
2022-08-01T04:32:01.050Z,14.83
2022-08-01T04:34:31.793Z,14.94
2022-08-01T04:36:59.588Z,15.02
2022-08-01T04:39:29.156Z,15.10
2022-08-01T04:41:59.441Z,15.26
2022-08-01T04:44:32.340Z,15.28
2022-08-01T04:47:04.749Z,15.44
2022-08-01T04:49:49.067Z,15.55
2022-08-01T04:52:24.339Z,15.64
2022-08-01T04:54:51.690Z,15.73
2022-08-01T04:57:18.563Z,15.92
2022-08-01T04:59:45.408Z,15.98
2022-08-01T05:02:14.953Z,16.03
2022-08-01T05:04:43.395Z,16.15
2022-08-01T05:07:11.849Z,16.31
2022-08-01T05:09:39.919Z,16.50
2022-08-01T05:12:07.820Z,16.59
2022-08-01T05:14:36.047Z,16.77
2022-08-01T05:17:06.028Z,16.98
2022-08-01T05:19:37.952Z,17.11
2022-08-01T05:22:07.418Z,17.22
2022-08-01T05:24:40.207Z,17.36
2022-08-01T05:27:09.024Z,17.50
2022-08-01T05:29:44.241Z,17.53
2022-08-01T05:32:11.823Z,17.80
2022-08-01T05:34:38.738Z,17.82
2022-08-01T05:37:05.662Z,17.88
2022-08-01T05:39:32.432Z,18.04
2022-08-01T05:41:59.594Z,18.14
2022-08-01T05:44:26.570Z,18.26
2022-08-01T05:46:53.705Z,18.17
2022-08-01T05:49:20.648Z,18.19
2022-08-01T05:51:47.682Z,18.46
2022-08-01T05:54:14.609Z,18.53
2022-08-01T05:56:41.559Z,18.65
2022-08-01T05:59:08.482Z,18.73
2022-08-01T06:01:35.851Z,18.63
2022-08-01T06:04:02.873Z,18.82
2022-08-01T06:06:29.853Z,18.93
2022-08-01T06:08:56.676Z,18.95
2022-08-01T06:11:23.686Z,19.09
2022-08-01T06:13:50.583Z,19.18
2022-08-01T06:16:17.770Z,19.29
2022-08-01T06:18:44.720Z,19.45
2022-08-01T06:21:11.654Z,19.60
2022-08-01T06:23:38.532Z,19.65
2022-08-01T06:26:05.461Z,19.76
2022-08-01T06:28:32.564Z,19.86
2022-08-01T06:31:00.713Z,20.03
2022-08-01T06:33:28.463Z,20.09
2022-08-01T06:35:55.518Z,20.38
2022-08-01T06:38:22.693Z,20.43
2022-08-01T06:40:49.745Z,20.47
2022-08-01T06:43:17.892Z,20.39
2022-08-01T06:45:45.283Z,20.58
2022-08-01T06:48:12.344Z,20.62
2022-08-01T06:50:39.509Z,20.69
2022-08-01T06:53:06.878Z,20.65
2022-08-01T06:55:33.833Z,20.87
2022-08-01T06:58:00.694Z,20.81
2022-08-01T07:00:28.126Z,21.24
2022-08-01T07:02:57.902Z,21.26
2022-08-01T07:05:25.292Z,21.34
2022-08-01T07:07:52.208Z,21.48
2022-08-01T07:10:19.501Z,21.42
2022-08-01T07:12:46.324Z,21.54
2022-08-01T07:15:13.276Z,21.55
2022-08-01T07:17:43.018Z,21.58
2022-08-01T07:20:12.385Z,21.75
2022-08-01T07:22:47.541Z,21.98
2022-08-01T07:25:18.704Z,22.08
2022-08-01T07:27:45.784Z,22.06
2022-08-01T07:30:12.986Z,22.01
2022-08-01T07:32:39.827Z,22.16
2022-08-01T07:35:07.156Z,22.30
2022-08-01T07:37:45.332Z,22.36
2022-08-01T07:40:18.751Z,22.43
2022-08-01T07:42:46.451Z,22.53
2022-08-01T07:45:13.833Z,22.62
2022-08-01T07:47:40.619Z,22.45
2022-08-01T07:50:08.298Z,22.51
2022-08-01T07:52:35.104Z,22.55
2022-08-01T07:55:02.034Z,22.62
2022-08-01T07:57:28.838Z,22.66
2022-08-01T07:59:55.767Z,22.87
2022-08-01T08:02:22.623Z,22.96
2022-08-01T08:04:49.520Z,23.12
2022-08-01T08:07:16.732Z,23.13
2022-08-01T08:09:43.703Z,23.22
2022-08-01T08:12:11.149Z,23.03
2022-08-01T08:14:38.829Z,23.05
2022-08-01T08:17:06.601Z,23.13
2022-08-01T08:19:37.975Z,23.14
2022-08-01T08:22:07.771Z,23.22
2022-08-01T08:24:35.798Z,23.12
2022-08-01T08:27:02.821Z,23.12
2022-08-01T08:29:32.863Z,23.39
2022-08-01T08:32:00.714Z,23.44
2022-08-01T08:34:29.565Z,23.38
2022-08-01T08:36:58.857Z,23.43
2022-08-01T08:39:26.800Z,23.47
2022-08-01T08:41:53.690Z,23.48
2022-08-01T08:44:23.352Z,23.72
2022-08-01T08:46:53.238Z,23.77
2022-08-01T08:49:23.352Z,23.87
2022-08-01T08:51:52.739Z,23.97
2022-08-01T08:54:24.106Z,24.20
2022-08-01T08:56:59.808Z,24.29
2022-08-01T08:59:27.372Z,24.27
2022-08-01T09:01:54.227Z,24.39
2022-08-01T09:04:26.034Z,24.37
2022-08-01T09:06:54.746Z,24.52
2022-08-01T09:09:22.235Z,24.30
2022-08-01T09:11:56.927Z,24.45
2022-08-01T09:14:26.441Z,24.77
2022-08-01T09:17:13.900Z,24.68
2022-08-01T09:19:54.548Z,24.70
2022-08-01T09:22:26.255Z,24.82
2022-08-01T09:25:05.981Z,25.16
2022-08-01T09:27:34.624Z,25.06
2022-08-01T09:30:17.175Z,25.18
2022-08-01T09:33:11.403Z,25.42
2022-08-01T09:35:46.501Z,25.33
2022-08-01T09:38:20.690Z,25.26
2022-08-01T09:40:53.543Z,25.27
2022-08-01T09:43:22.053Z,25.49
2022-08-01T09:45:50.424Z,25.65
2022-08-01T09:48:18.671Z,25.86
2022-08-01T09:50:48.518Z,26.02
2022-08-01T09:53:30.169Z,26.10
2022-08-01T09:56:12.860Z,26.16
2022-08-01T09:59:02.383Z,25.70
2022-08-01T10:01:50.840Z,25.35
2022-08-01T10:04:21.325Z,25.41
2022-08-01T10:06:53.746Z,25.65
2022-08-01T10:09:40.197Z,25.69
2022-08-01T10:12:09.157Z,25.59
2022-08-01T10:14:46.026Z,25.99
2022-08-01T10:17:18.342Z,26.31
2022-08-01T10:19:45.983Z,26.48
2022-08-01T10:22:17.568Z,26.33
2022-08-01T10:24:48.242Z,26.37
2022-08-01T10:27:24.299Z,26.21
2022-08-01T10:30:19.285Z,26.30
2022-08-01T10:32:51.009Z,25.77
2022-08-01T10:35:24.066Z,25.68
2022-08-01T10:38:06.440Z,25.69
2022-08-01T10:40:38.731Z,25.88
2022-08-01T10:43:07.678Z,26.10
2022-08-01T10:45:35.311Z,26.57
2022-08-01T10:48:11.029Z,26.77
2022-08-01T10:50:53.360Z,26.75
2022-08-01T10:53:31.199Z,26.96
2022-08-01T10:56:13.254Z,27.16
2022-08-01T10:58:46.988Z,27.02
2022-08-01T11:01:27.935Z,26.75
2022-08-01T11:04:13.962Z,26.42
2022-08-01T11:07:04.371Z,26.93
2022-08-01T11:09:40.530Z,26.84
2022-08-01T11:12:23.569Z,27.03
2022-08-01T11:15:03.001Z,26.97
2022-08-01T11:17:38.364Z,26.89
2022-08-01T11:20:13.745Z,27.00
2022-08-01T11:23:02.463Z,27.10
2022-08-01T11:26:05.284Z,27.36
2022-08-01T11:28:33.261Z,27.36
2022-08-01T11:31:11.249Z,27.45
2022-08-01T11:33:46.879Z,27.61
2022-08-01T11:36:48.755Z,27.63
2022-08-01T11:39:13.163Z,27.02
2022-08-01T11:41:40.596Z,27.12
2022-08-01T11:44:19.121Z,27.04
2022-08-01T11:46:53.465Z,27.26
2022-08-01T11:50:00.469Z,27.53
2022-08-01T11:52:30.953Z,27.22
2022-08-01T11:55:10.017Z,27.04
2022-08-01T11:57:39.154Z,27.46
2022-08-01T12:00:26.684Z,27.74
2022-08-01T12:03:05.341Z,27.84
2022-08-01T12:05:35.409Z,27.54
2022-08-01T12:08:02.686Z,27.66
2022-08-01T12:10:49.688Z,28.05
2022-08-01T12:13:19.123Z,27.69
2022-08-01T12:15:47.362Z,27.42
2022-08-01T12:18:15.007Z,27.99
2022-08-01T12:20:56.017Z,28.56
2022-08-01T12:23:23.718Z,28.06
2022-08-01T12:25:54.286Z,28.06
2022-08-01T12:28:21.179Z,28.25
2022-08-01T12:30:49.920Z,28.11
2022-08-01T12:33:20.042Z,27.85
2022-08-01T12:35:47.766Z,27.84
2022-08-01T12:38:20.892Z,28.09
2022-08-01T12:40:51.688Z,28.42
2022-08-01T12:43:28.695Z,28.27
2022-08-01T12:45:59.777Z,28.55
2022-08-01T12:48:28.059Z,28.66
2022-08-01T12:50:59.155Z,28.30
2022-08-01T12:53:39.764Z,28.56
2022-08-01T12:56:10.697Z,28.14
2022-08-01T12:58:38.196Z,28.81
2022-08-01T13:01:13.152Z,28.87
2022-08-01T13:03:40.594Z,28.75
2022-08-01T13:06:13.942Z,28.62
2022-08-01T13:08:40.988Z,28.70
2022-08-01T13:11:17.818Z,28.90
2022-08-01T13:13:48.762Z,29.00
2022-08-01T13:16:31.162Z,29.43
2022-08-01T13:19:07.562Z,29.47
2022-08-01T13:21:54.229Z,28.88
2022-08-01T13:24:26.979Z,29.05
2022-08-01T13:26:58.661Z,28.94
2022-08-01T13:29:34.380Z,28.84
2022-08-01T13:32:29.813Z,29.20
2022-08-01T13:35:09.348Z,29.06
2022-08-01T13:37:38.434Z,29.30
2022-08-01T13:40:10.114Z,29.33
2022-08-01T13:42:37.389Z,30.13
2022-08-01T13:45:14.165Z,30.00
2022-08-01T13:48:03.224Z,29.71
2022-08-01T13:50:31.734Z,30.03
2022-08-01T13:52:58.626Z,30.05
2022-08-01T13:55:25.554Z,30.08
2022-08-01T13:57:52.495Z,29.92
2022-08-01T14:00:19.269Z,29.88
2022-08-01T14:02:46.063Z,29.66
2022-08-01T14:05:12.931Z,29.75
2022-08-01T14:07:41.386Z,29.70
2022-08-01T14:10:18.328Z,29.65
2022-08-01T14:12:50.859Z,29.83
2022-08-01T14:15:37.714Z,29.89
2022-08-01T14:18:06.193Z,30.04
2022-08-01T14:20:33.932Z,29.73
2022-08-01T14:23:00.623Z,29.85
2022-08-01T14:26:03.531Z,29.85
2022-08-01T14:28:14.275Z,29.86
2022-08-01T14:30:42.384Z,29.49
2022-08-01T14:33:10.638Z,29.39
2022-08-01T14:36:01.256Z,29.13
2022-08-01T14:38:31.373Z,29.59
2022-08-01T14:41:00.403Z,30.00
2022-08-01T14:43:33.090Z,30.60
2022-08-01T14:46:04.685Z,31.21
2022-08-01T14:48:31.822Z,30.74
2022-08-01T14:51:01.451Z,30.49
2022-08-01T14:53:28.357Z,30.82
2022-08-01T14:55:55.198Z,30.59
2022-08-01T14:58:22.096Z,30.90
2022-08-01T15:00:49.099Z,30.75
2022-08-01T15:03:16.055Z,30.16
2022-08-01T15:05:43.053Z,29.63
2022-08-01T15:08:09.945Z,29.07
2022-08-01T15:10:36.768Z,28.99
2022-08-01T15:13:03.680Z,28.59
2022-08-01T15:15:31.065Z,28.18
2022-08-01T15:17:58.182Z,28.13
2022-08-01T15:20:25.672Z,28.08
2022-08-01T15:22:52.969Z,27.90
2022-08-01T15:25:20.182Z,27.73
2022-08-01T15:27:47.053Z,27.60
2022-08-01T15:30:13.966Z,27.30
2022-08-01T15:32:40.780Z,27.47
2022-08-01T15:35:08.293Z,27.46
2022-08-01T15:37:38.426Z,27.15
2022-08-01T15:40:08.698Z,26.99
2022-08-01T15:42:35.889Z,26.67
2022-08-01T15:45:02.752Z,26.62
2022-08-01T15:47:31.149Z,26.57
2022-08-01T15:50:00.607Z,26.54
2022-08-01T15:52:30.935Z,26.49
2022-08-01T15:54:59.014Z,26.39
2022-08-01T15:57:26.199Z,26.24
2022-08-01T15:59:53.228Z,26.22
2022-08-01T16:02:20.188Z,26.16
2022-08-01T16:04:47.217Z,26.41
2022-08-01T16:07:14.243Z,26.41
2022-08-01T16:09:41.141Z,26.56
2022-08-01T16:12:09.093Z,27.11
2022-08-01T16:14:36.131Z,27.20
2022-08-01T16:17:02.975Z,27.01
2022-08-01T16:19:30.014Z,26.92
2022-08-01T16:21:56.898Z,26.74
2022-08-01T16:24:23.968Z,26.60
2022-08-01T16:26:50.844Z,26.45
2022-08-01T16:29:17.687Z,26.23
2022-08-01T16:31:50.760Z,26.19
2022-08-01T16:34:26.191Z,26.18
2022-08-01T16:36:55.460Z,26.18
2022-08-01T16:39:23.706Z,26.11
2022-08-01T16:41:55.106Z,26.13
2022-08-01T16:44:33.985Z,26.00
2022-08-01T16:47:05.683Z,26.04
2022-08-01T16:49:33.223Z,26.02
2022-08-01T16:52:00.306Z,25.98
2022-08-01T16:54:27.728Z,25.99
2022-08-01T16:56:57.315Z,25.99
2022-08-01T16:59:24.934Z,25.92
2022-08-01T17:02:01.365Z,25.93
2022-08-01T17:04:30.164Z,25.93
2022-08-01T17:06:58.147Z,25.89
2022-08-01T17:09:25.093Z,25.90
2022-08-01T17:11:52.112Z,25.81
2022-08-01T17:14:19.234Z,25.77
2022-08-01T17:16:46.637Z,25.74
2022-08-01T17:19:14.735Z,25.71
2022-08-01T17:21:42.510Z,25.60
2022-08-01T17:24:12.359Z,25.49
2022-08-01T17:26:43.679Z,25.38
2022-08-01T17:29:10.544Z,25.33
2022-08-01T17:31:37.363Z,25.26
2022-08-01T17:34:04.239Z,25.20
2022-08-01T17:36:31.119Z,25.17
2022-08-01T17:38:59.410Z,25.09
2022-08-01T17:41:26.711Z,24.96
2022-08-01T17:43:53.744Z,24.96
2022-08-01T17:46:20.794Z,24.82
2022-08-01T17:48:47.645Z,24.74
2022-08-01T17:51:18.233Z,24.64
2022-08-01T17:53:56.793Z,24.47
2022-08-01T17:56:26.230Z,24.37
2022-08-01T17:58:53.480Z,24.18
2022-08-01T18:01:21.361Z,24.18
2022-08-01T18:03:48.845Z,24.08
2022-08-01T18:06:23.357Z,23.97
2022-08-01T18:08:55.357Z,23.87
2022-08-01T18:11:27.132Z,23.80
2022-08-01T18:13:55.436Z,23.73
2022-08-01T18:16:22.512Z,23.66
2022-08-01T18:18:49.710Z,23.60
2022-08-01T18:21:16.568Z,23.52
2022-08-01T18:23:51.102Z,23.40
2022-08-01T18:26:18.754Z,23.41
2022-08-01T18:28:46.701Z,23.37
2022-08-01T18:31:17.517Z,23.34
2022-08-01T18:33:44.721Z,23.30
2022-08-01T18:36:18.353Z,23.28
2022-08-01T18:38:59.538Z,23.22
2022-08-01T18:41:26.761Z,23.21
2022-08-01T18:44:05.495Z,23.19
2022-08-01T18:46:39.338Z,23.13
2022-08-01T18:49:12.895Z,23.11
2022-08-01T18:51:44.853Z,23.05
2022-08-01T18:54:13.067Z,23.01
2022-08-01T18:56:40.223Z,22.90
2022-08-01T18:59:07.241Z,22.85
2022-08-01T19:01:34.181Z,22.82
2022-08-01T19:04:01.364Z,22.79
2022-08-01T19:06:28.415Z,22.73
2022-08-01T19:08:58.381Z,22.65
2022-08-01T19:11:28.634Z,22.56
2022-08-01T19:13:55.388Z,22.48
2022-08-01T19:16:22.676Z,22.37
2022-08-01T19:18:49.516Z,22.32
2022-08-01T19:21:16.496Z,22.23
2022-08-01T19:24:02.124Z,22.16
2022-08-01T19:26:32.685Z,22.09
2022-08-01T19:29:19.029Z,21.99
2022-08-01T19:31:48.969Z,21.94
2022-08-01T19:34:18.712Z,21.84
2022-08-01T19:36:47.728Z,21.83
2022-08-01T19:39:16.930Z,21.77
2022-08-01T19:41:46.246Z,21.67
2022-08-01T19:44:15.655Z,21.61
2022-08-01T19:46:43.729Z,21.47
2022-08-01T19:49:15.596Z,21.25
2022-08-01T19:52:02.499Z,21.11
2022-08-01T19:54:37.525Z,20.81
2022-08-01T19:57:07.083Z,20.64
2022-08-01T19:59:35.914Z,20.61
2022-08-01T20:02:05.052Z,20.58
2022-08-01T20:04:33.804Z,20.54
2022-08-01T20:07:00.852Z,20.65
2022-08-01T20:09:27.926Z,20.81
2022-08-01T20:11:55.131Z,20.97
2022-08-01T20:14:26.544Z,21.08
2022-08-01T20:16:56.104Z,21.08
2022-08-01T20:19:26.766Z,21.12
2022-08-01T20:22:05.938Z,21.04
2022-08-01T20:24:41.970Z,20.94
2022-08-01T20:27:12.607Z,20.81
2022-08-01T20:29:39.944Z,20.74
2022-08-01T20:32:08.180Z,20.66
2022-08-01T20:34:39.877Z,20.51
2022-08-01T20:37:12.968Z,20.38
2022-08-01T20:39:44.202Z,20.26
2022-08-01T20:42:12.469Z,20.15
2022-08-01T20:44:39.935Z,20.03
2022-08-01T20:47:06.852Z,19.92
2022-08-01T20:49:36.309Z,19.81
2022-08-01T20:52:12.039Z,19.76
2022-08-01T20:54:40.977Z,19.59
2022-08-01T20:57:25.766Z,19.57
2022-08-01T21:00:02.147Z,19.46
2022-08-01T21:02:51.439Z,19.48
2022-08-01T21:05:42.043Z,19.49
2022-08-01T21:08:29.037Z,19.48
2022-08-01T21:10:58.163Z,19.42
2022-08-01T21:13:38.311Z,19.29
2022-08-01T21:16:24.181Z,19.21
2022-08-01T21:19:19.646Z,19.15
2022-08-01T21:22:09.589Z,19.04
2022-08-01T21:24:58.260Z,18.83
2022-08-01T21:27:33.101Z,18.73
2022-08-01T21:30:06.782Z,18.74
2022-08-01T21:32:34.966Z,18.63
2022-08-01T21:35:03.696Z,18.58
2022-08-01T21:37:34.163Z,18.49
2022-08-01T21:40:09.469Z,18.41
2022-08-01T21:42:38.631Z,18.33
2022-08-01T21:45:09.571Z,18.26
2022-08-01T21:47:36.956Z,18.18
2022-08-01T21:50:04.958Z,18.10
2022-08-01T21:52:46.890Z,18.02
2022-08-01T21:55:20.037Z,17.98
2022-08-01T21:58:16.528Z,17.93
2022-08-01T22:00:52.254Z,17.72
2022-08-01T22:03:26.427Z,17.74
2022-08-01T22:05:54.085Z,17.55
2022-08-01T22:08:51.304Z,17.64
2022-08-01T22:11:23.993Z,17.62
2022-08-01T22:13:56.780Z,17.63
2022-08-01T22:16:27.010Z,17.64
2022-08-01T22:18:54.357Z,17.69
2022-08-01T22:21:21.880Z,17.70
2022-08-01T22:23:52.232Z,17.68
2022-08-01T22:26:24.672Z,17.68
2022-08-01T22:28:55.848Z,17.62
2022-08-01T22:31:23.195Z,17.61
2022-08-01T22:33:50.787Z,17.57
2022-08-01T22:36:20.142Z,17.51
2022-08-01T22:38:47.461Z,17.49
2022-08-01T22:41:17.629Z,17.46
2022-08-01T22:44:04.122Z,17.45
2022-08-01T22:46:52.245Z,17.38
2022-08-01T22:49:25.238Z,17.30
2022-08-01T22:52:03.205Z,17.22
2022-08-01T22:54:36.478Z,17.13
2022-08-01T22:57:08.721Z,17.07
2022-08-01T22:59:43.440Z,17.02
2022-08-01T23:02:15.378Z,16.91
2022-08-01T23:04:45.596Z,16.86
2022-08-01T23:07:24.307Z,16.85
2022-08-01T23:09:56.982Z,16.79
2022-08-01T23:12:25.665Z,16.78
2022-08-01T23:14:55.180Z,16.76
2022-08-01T23:17:26.385Z,16.77
2022-08-01T23:20:01.348Z,16.71
2022-08-01T23:22:33.585Z,16.67
2022-08-01T23:25:04.257Z,16.73
2022-08-01T23:28:05.541Z,16.75
2022-08-01T23:30:34.849Z,16.63
2022-08-01T23:33:02.526Z,16.68
2022-08-01T23:35:30.112Z,16.55
2022-08-01T23:38:02.272Z,16.58
2022-08-01T23:40:29.843Z,16.50
2022-08-01T23:42:57.978Z,16.51
2022-08-01T23:45:24.779Z,16.37
2022-08-01T23:47:52.270Z,16.35
2022-08-01T23:50:19.589Z,16.27
2022-08-01T23:52:50.559Z,16.31
2022-08-01T23:55:36.836Z,16.30
2022-08-01T23:58:06.768Z,16.22
